Time;durP1;ratioP1;P1;durP2;ratioP2;P2;SDS_P1;SDS_P2;PMS_P1;PMS_P2;Temp;Humidity;BMP_temperature;BMP_pressure;BME280_temperature;BME280_humidity;BME280_pressure;Samples;Min_cycle;Max_cycle;Signal;HPM_P1;HPM_P2
2021/05/23 00:02:17;;;;;;;5.05;2.15;;;435.70;1484.80;;;;;;5001077;28;20033;-83
2021/05/23 00:04:44;;;;;;;5.65;2.45;;;435.70;1510.40;;;;;;5000560;28;20030;-82
2021/05/23 00:07:11;;;;;;;5.30;2.13;;;435.70;1510.40;;;;;;5017648;28;20064;-85
2021/05/23 00:09:38;;;;;;;5.30;2.70;;;435.70;1536.00;;;;;;5000367;28;20080;-84
2021/05/23 00:12:12;;;;;;;8.70;3.20;;;435.60;1561.60;;;;;;5000094;28;20026;-83
2021/05/23 00:14:37;;;;;;;8.10;3.13;;;435.50;1587.20;;;;;;5017507;28;20410;-82
2021/05/23 00:17:04;;;;;;;8.25;3.45;;;435.40;1587.20;;;;;;4999823;28;20030;-82
2021/05/23 00:19:29;;;;;;;4.97;2.63;;;435.40;1561.60;;;;;;4999391;28;20033;-83
2021/05/23 00:21:56;;;;;;;3.38;2.30;;;435.20;1536.00;;;;;;5000863;28;20022;-85
2021/05/23 00:24:24;;;;;;;4.30;2.17;;;410.50;1536.00;;;;;;5001806;28;20520;-84
2021/05/23 00:26:50;;;;;;;6.10;2.42;;;410.50;1536.00;;;;;;5003035;28;20028;-83
2021/05/23 00:29:16;;;;;;;3.92;2.70;;;410.50;1561.60;;;;;;5002680;28;20126;-84
2021/05/23 00:31:42;;;;;;;5.28;2.90;;;410.50;1587.20;;;;;;5002989;28;20049;-82
2021/05/23 00:34:08;;;;;;;9.95;3.80;;;410.40;1612.80;;;;;;5002206;28;20088;-84
2021/05/23 00:36:33;;;;;;;4.03;2.60;;;410.40;1612.80;;;;;;5003537;28;20033;-83
2021/05/23 00:38:59;;;;;;;7.40;2.95;;;410.20;1689.60;;;;;;4999786;28;20516;-83
2021/05/23 00:41:25;;;;;;;4.75;2.50;;;410.00;1715.20;;;;;;4998756;28;20125;-83
2021/05/23 00:43:51;;;;;;;5.38;3.00;;;409.90;1689.60;;;;;;4998586;28;20054;-82
2021/05/23 00:46:17;;;;;;;5.82;3.33;;;409.90;1715.20;;;;;;4999517;28;20477;-82
2021/05/23 00:48:43;;;;;;;7.38;3.67;;;410.00;1766.40;;;;;;4998632;28;20046;-83
2021/05/23 00:51:08;;;;;;;5.88;3.03;;;410.00;1817.60;;;;;;4998632;28;20030;-83
2021/05/23 00:53:34;;;;;;;5.03;2.92;;;409.90;1868.80;;;;;;5025063;28;20030;-83
2021/05/23 00:56:00;;;;;;;5.63;2.67;;;409.60;1894.40;;;;;;5012646;28;20109;-84
2021/05/23 00:58:26;;;;;;;4.82;2.90;;;384.80;1894.40;;;;;;5014189;28;20089;-85
2021/05/23 01:00:55;;;;;;;7.60;2.95;;;384.70;1920.00;;;;;;5011852;28;20026;-84
2021/05/23 01:03:27;;;;;;;4.03;2.88;;;384.50;1945.60;;;;;;5008677;28;20105;-85
2021/05/23 01:06:00;;;;;;;7.43;2.80;;;384.50;1945.60;;;;;;5013429;28;20033;-83
2021/05/23 01:08:27;;;;;;;5.88;3.22;;;384.60;1920.00;;;;;;5013864;28;20032;-85
2021/05/23 01:11:24;;;;;;;7.03;3.90;;;384.60;1920.00;;;;;;5024560;28;20034;-84
2021/05/23 01:13:56;;;;;;;7.05;3.90;;;384.50;1945.60;;;;;;5008318;28;20038;-85
2021/05/23 01:16:28;;;;;;;5.90;3.30;;;384.40;1971.20;;;;;;5023681;28;20034;-84
2021/05/23 01:19:12;;;;;;;8.02;3.45;;;384.40;1945.60;;;;;;5006403;28;20026;-84
2021/05/23 01:21:42;;;;;;;6.30;3.00;;;384.40;1945.60;;;;;;5008996;28;20049;-86
2021/05/23 01:24:30;;;;;;;6.25;2.97;;;384.20;2022.40;;;;;;5006508;28;20030;-85
2021/05/23 01:26:57;;;;;;;8.60;3.05;;;384.20;1971.20;;;;;;5024398;28;20022;-84
2021/05/23 01:29:23;;;;;;;6.28;3.70;;;384.20;1971.20;;;;;;5008109;28;20049;-84
2021/05/23 01:31:50;;;;;;;4.68;3.22;;;384.20;1996.80;;;;;;5006787;28;20504;-85
2021/05/23 01:34:34;;;;;;;4.93;3.25;;;384.20;1996.80;;;;;;5007038;28;20064;-84
2021/05/23 01:37:14;;;;;;;5.97;3.80;;;384.20;2022.40;;;;;;5007921;28;20032;-83
2021/05/23 01:39:53;;;;;;;6.43;3.45;;;384.10;2022.40;;;;;;5006565;28;20037;-84
2021/05/23 01:42:19;;;;;;;5.25;3.20;;;384.00;2073.60;;;;;;5024016;28;20068;-84
2021/05/23 01:44:46;;;;;;;8.73;3.35;;;384.00;2048.00;;;;;;4984168;28;20039;-84
2021/05/23 01:47:16;;;;;;;6.80;3.13;;;384.00;2022.40;;;;;;4982888;28;20026;-84
2021/05/23 01:49:48;;;;;;;9.02;3.75;;;359.30;1996.80;;;;;;4983747;28;20033;-84
2021/05/23 01:52:20;;;;;;;6.47;2.63;;;359.10;2048.00;;;;;;4984603;28;20023;-84
2021/05/23 01:54:52;;;;;;;5.07;3.20;;;359.00;2048.00;;;;;;4976042;28;20121;-85
2021/05/23 01:57:18;;;;;;;7.20;3.10;;;359.00;2022.40;;;;;;4977554;28;20038;-84
2021/05/23 01:59:44;;;;;;;6.75;2.47;;;358.90;2073.60;;;;;;4975741;28;20273;-85
2021/05/23 02:02:09;;;;;;;7.07;3.30;;;359.00;2048.00;;;;;;4975853;28;20037;-84
2021/05/23 02:04:35;;;;;;;8.05;2.92;;;359.00;2048.00;;;;;;4976130;28;20117;-85
2021/05/23 02:07:01;;;;;;;5.82;2.85;;;359.00;2073.60;;;;;;4978529;28;20038;-84
2021/05/23 02:09:27;;;;;;;3.95;3.05;;;358.80;2048.00;;;;;;4987243;28;20045;-86
2021/05/23 02:11:55;;;;;;;6.65;2.25;;;358.90;2048.00;;;;;;4989699;28;20534;-84
2021/05/23 02:14:22;;;;;;;6.43;2.58;;;358.90;2073.60;;;;;;4996807;28;20023;-84
2021/05/23 02:16:51;;;;;;;5.38;2.58;;;358.80;2073.60;;;;;;4996239;28;20019;-86
2021/05/23 02:19:17;;;;;;;5.45;2.42;;;358.80;2048.00;;;;;;4995079;28;20110;-85
2021/05/23 02:21:43;;;;;;;4.25;2.53;;;358.80;1996.80;;;;;;4992994;28;20028;-84
2021/05/23 02:24:09;;;;;;;5.03;3.35;;;358.70;2022.40;;;;;;4989534;28;20030;-85
2021/05/23 02:26:34;;;;;;;4.22;2.53;;;358.70;1996.80;;;;;;4990853;28;20101;-84
2021/05/23 02:29:00;;;;;;;13.80;2.97;;;358.80;2022.40;;;;;;4984779;28;20066;-85
2021/05/23 02:31:26;;;;;;;5.00;3.15;;;358.80;2048.00;;;;;;4986394;28;20087;-84
2021/05/23 02:33:52;;;;;;;7.15;2.72;;;358.80;2022.40;;;;;;4984681;28;20027;-84
2021/05/23 02:36:17;;;;;;;3.75;2.50;;;358.80;2022.40;;;;;;4986065;28;20031;-84
2021/05/23 02:38:43;;;;;;;6.13;2.22;;;358.80;2022.40;;;;;;4987671;28;20050;-84
2021/05/23 02:41:09;;;;;;;5.03;2.17;;;358.60;1996.80;;;;;;4984389;28;20026;-83
2021/05/23 02:43:36;;;;;;;5.57;2.50;;;358.60;2022.40;;;;;;4984747;28;20059;-85
2021/05/23 02:46:03;;;;;;;3.90;1.83;;;358.50;1996.80;;;;;;4983292;28;20097;-85
2021/05/23 02:48:29;;;;;;;3.88;2.17;;;358.40;2022.40;;;;;;4981567;28;20035;-84
2021/05/23 02:50:55;;;;;;;4.00;2.47;;;333.70;2022.40;;;;;;4980960;28;20038;-83
2021/05/23 02:53:22;;;;;;;3.25;1.90;;;333.70;2022.40;;;;;;4983273;28;20037;-84
2021/05/23 02:55:49;;;;;;;3.92;2.33;;;333.70;2022.40;;;;;;5000453;28;20078;-85
2021/05/23 02:58:16;;;;;;;3.75;2.30;;;333.70;1996.80;;;;;;4999075;28;20033;-84
2021/05/23 03:00:43;;;;;;;5.60;1.98;;;333.70;1996.80;;;;;;4997816;28;20051;-83
2021/05/23 03:03:10;;;;;;;4.53;2.13;;;333.70;1971.20;;;;;;4994527;28;20037;-85
2021/05/23 03:09:05;;;;;;;3.65;2.20;;;333.70;1996.80;;;;;;4933850;28;20433;-84
2021/05/23 03:11:43;;;;;;;5.55;2.60;;;333.70;2022.40;;;;;;4915015;29;20036;-85
2021/05/23 03:14:10;;;;;;;5.35;2.50;;;333.60;2048.00;;;;;;4915758;29;20040;-84
2021/05/23 03:16:36;;;;;;;5.45;2.53;;;333.70;2048.00;;;;;;4931420;29;20024;-86
2021/05/23 03:19:08;;;;;;;5.93;3.13;;;358.40;2048.00;;;;;;4913774;29;20043;-85
2021/05/23 03:21:49;;;;;;;8.70;3.03;;;333.60;2048.00;;;;;;4914776;29;20032;-84
2021/05/23 03:24:15;;;;;;;6.15;3.17;;;333.70;2073.60;;;;;;4918447;29;20042;-83
2021/05/23 03:26:43;;;;;;;5.85;2.65;;;333.70;2073.60;;;;;;4915998;29;20102;-83
2021/05/23 03:29:09;;;;;;;6.40;3.42;;;333.70;2048.00;;;;;;4918772;29;20040;-84
2021/05/23 03:31:34;;;;;;;4.10;2.53;;;333.70;2073.60;;;;;;4914859;29;20039;-84
2021/05/23 03:34:00;;;;;;;10.50;3.40;;;358.50;2048.00;;;;;;4917515;29;20032;-83
2021/05/23 03:36:26;;;;;;;5.47;2.83;;;358.60;2048.00;;;;;;4919984;29;20028;-84
2021/05/23 03:38:52;;;;;;;13.63;3.33;;;358.80;2022.40;;;;;;4918085;29;20544;-83
2021/05/23 03:41:18;;;;;;;4.10;2.58;;;358.80;2022.40;;;;;;4916722;29;20028;-85
2021/05/23 03:43:44;;;;;;;4.32;2.13;;;358.90;2022.40;;;;;;4941251;29;20540;-84
2021/05/23 03:46:09;;;;;;;7.82;4.68;;;359.00;1971.20;;;;;;4996242;28;20053;-85
2021/05/23 03:48:35;;;;;;;6.47;3.30;;;359.00;1971.20;;;;;;5009695;28;20106;-84
2021/05/23 03:51:01;;;;;;;7.03;3.28;;;358.90;1971.20;;;;;;5010397;28;20042;-84
2021/05/23 03:53:27;;;;;;;8.43;4.85;;;358.90;1996.80;;;;;;5004252;28;20030;-85
2021/05/23 03:55:52;;;;;;;8.27;3.35;;;359.00;1971.20;;;;;;4997532;28;20043;-84
2021/05/23 03:58:18;;;;;;;11.57;4.80;;;359.00;1971.20;;;;;;4997048;28;20037;-85
2021/05/23 04:00:44;;;;;;;7.22;3.67;;;359.00;1971.20;;;;;;4997307;28;20391;-84
2021/05/23 04:03:11;;;;;;;6.13;3.40;;;359.20;1971.20;;;;;;4998082;28;20096;-85
2021/05/23 04:05:36;;;;;;;7.38;3.08;;;359.30;1971.20;;;;;;4997524;28;20081;-85
2021/05/23 04:08:03;;;;;;;4.22;2.63;;;384.00;1945.60;;;;;;4996843;28;20046;-85
2021/05/23 04:10:33;;;;;;;4.95;2.85;;;384.10;1920.00;;;;;;5008260;28;20027;-84
2021/05/23 04:13:02;;;;;;;5.93;2.58;;;384.30;1920.00;;;;;;5009287;28;20030;-85
2021/05/23 04:15:29;;;;;;;8.85;2.45;;;384.30;1920.00;;;;;;5010392;28;20069;-83
2021/05/23 04:17:54;;;;;;;2.88;2.10;;;384.40;1894.40;;;;;;5005156;28;20030;-85
2021/05/23 04:20:22;;;;;;;5.00;2.90;;;384.50;1920.00;;;;;;5010318;28;20037;-85
2021/05/23 04:22:49;;;;;;;4.53;2.75;;;384.60;1894.40;;;;;;5008366;28;20046;-84
2021/05/23 04:25:16;;;;;;;4.50;2.53;;;384.70;1920.00;;;;;;4998481;28;20026;-86
2021/05/23 04:27:45;;;;;;;3.17;2.22;;;384.50;1920.00;;;;;;4998066;28;20034;-85
2021/05/23 04:30:12;;;;;;;5.97;3.13;;;384.60;1894.40;;;;;;4997937;28;20122;-85
2021/05/23 04:32:38;;;;;;;11.05;2.88;;;384.60;1894.40;;;;;;4996217;28;20057;-85
2021/05/23 04:35:05;;;;;;;4.43;2.60;;;384.50;1894.40;;;;;;4996802;28;20058;-85
2021/05/23 04:37:31;;;;;;;4.63;2.50;;;384.40;1920.00;;;;;;4997956;28;20027;-85
2021/05/23 04:39:57;;;;;;;5.55;3.42;;;384.40;1894.40;;;;;;4998056;28;20042;-84
2021/05/23 04:42:23;;;;;;;5.72;3.28;;;384.20;1920.00;;;;;;4997384;28;20149;-84
2021/05/23 04:44:50;;;;;;;4.55;2.10;;;384.40;1894.40;;;;;;4998821;28;20049;-86
2021/05/23 04:47:16;;;;;;;4.10;2.88;;;384.40;1843.20;;;;;;5000537;28;20026;-85
2021/05/23 04:49:43;;;;;;;8.38;2.58;;;384.60;1843.20;;;;;;4999083;28;20057;-85
2021/05/23 04:52:11;;;;;;;5.10;3.22;;;384.60;1843.20;;;;;;4999319;28;20026;-85
2021/05/23 04:54:38;;;;;;;4.22;2.85;;;384.90;1843.20;;;;;;5016961;28;20061;-86
2021/05/23 04:57:04;;;;;;;3.60;2.22;;;409.60;1843.20;;;;;;4999435;28;20034;-85
2021/05/23 04:59:30;;;;;;;4.32;2.58;;;409.70;1843.20;;;;;;4999956;28;20034;-86
2021/05/23 05:01:56;;;;;;;4.43;2.50;;;410.00;1817.60;;;;;;4998913;28;20049;-85
2021/05/23 05:04:22;;;;;;;3.63;2.50;;;410.20;1792.00;;;;;;4999412;28;20375;-86
2021/05/23 05:06:48;;;;;;;4.50;2.67;;;410.30;1766.40;;;;;;4999507;28;20025;-85
2021/05/23 05:09:14;;;;;;;4.35;2.50;;;435.20;1740.80;;;;;;4999666;28;20037;-85
2021/05/23 05:11:40;;;;;;;5.30;2.95;;;435.30;1740.80;;;;;;4999613;28;20052;-84
2021/05/23 05:14:10;;;;;;;3.95;2.40;;;435.50;1740.80;;;;;;4999030;28;20124;-86
2021/05/23 05:16:40;;;;;;;3.67;2.40;;;435.60;1689.60;;;;;;4999695;28;20068;-85
2021/05/23 05:19:07;;;;;;;3.65;2.60;;;435.70;1664.00;;;;;;5016156;28;20076;-86
2021/05/23 05:21:33;;;;;;;4.28;2.80;;;435.90;1638.40;;;;;;4999061;28;20025;-85
2021/05/23 05:23:58;;;;;;;3.97;2.60;;;436.10;1638.40;;;;;;5016584;28;20386;-86
2021/05/23 05:26:24;;;;;;;5.75;2.78;;;460.80;1638.40;;;;;;4998551;28;20083;-85
2021/05/23 05:28:50;;;;;;;4.43;2.60;;;460.90;1638.40;;;;;;4999731;28;20093;-85
2021/05/23 05:31:17;;;;;;;6.22;3.10;;;461.00;1612.80;;;;;;5015045;28;20413;-85
2021/05/23 05:33:43;;;;;;;3.35;2.45;;;461.10;1612.80;;;;;;5000046;28;20080;-86
2021/05/23 05:36:09;;;;;;;8.35;6.13;;;461.10;1587.20;;;;;;4998860;28;20018;-86
2021/05/23 05:38:35;;;;;;;10.23;8.90;;;461.10;1612.80;;;;;;4997928;28;20026;-86
2021/05/23 05:41:01;;;;;;;12.65;10.00;;;461.10;1612.80;;;;;;4999155;28;20036;-85
2021/05/23 05:43:30;;;;;;;12.90;9.27;;;461.30;1612.80;;;;;;4998586;28;20049;-85
2021/05/23 05:45:56;;;;;;;8.93;7.15;;;461.00;1638.40;;;;;;5015398;28;20029;-85
2021/05/23 05:48:22;;;;;;;16.02;8.65;;;461.00;1587.20;;;;;;4997867;28;20053;-86
2021/05/23 05:50:48;;;;;;;19.25;12.57;;;461.00;1561.60;;;;;;4997814;28;20029;-86
2021/05/23 05:53:36;;;;;;;18.92;14.48;;;460.80;1612.80;;;;;;4998887;28;20026;-85
2021/05/23 05:56:21;;;;;;;23.95;17.13;;;461.00;1638.40;;;;;;5014839;28;20465;-86
2021/05/23 05:59:04;;;;;;;28.00;20.35;;;461.20;1638.40;;;;;;4999360;28;20095;-86
2021/05/23 06:01:29;;;;;;;26.27;17.40;;;461.40;1638.40;;;;;;4999584;28;20359;-84
2021/05/23 06:03:55;;;;;;;19.17;14.05;;;461.50;1612.80;;;;;;4999306;28;20117;-85
2021/05/23 06:06:33;;;;;;;12.00;9.48;;;461.60;1561.60;;;;;;5003898;28;20382;-84
2021/05/23 06:08:59;;;;;;;16.40;8.93;;;461.60;1561.60;;;;;;5003034;28;20054;-85
2021/05/23 06:11:34;;;;;;;9.85;8.73;;;486.40;1536.00;;;;;;5011081;28;20009;-85
2021/05/23 06:14:18;;;;;;;13.02;10.55;;;486.40;1587.20;;;;;;5017868;28;20026;-85
2021/05/23 06:17:03;;;;;;;15.13;10.10;;;486.50;1587.20;;;;;;5020082;28;20014;-85
2021/05/23 06:19:35;;;;;;;13.07;9.35;;;486.50;1561.60;;;;;;5036581;23;20046;-85
2021/05/23 06:22:01;;;;;;;13.85;9.52;;;486.50;1587.20;;;;;;5052969;28;20072;-85
2021/05/23 06:24:26;;;;;;;16.27;10.52;;;486.60;1561.60;;;;;;5022502;28;20034;-84
2021/05/23 06:26:52;;;;;;;13.70;8.85;;;486.70;1587.20;;;;;;5017457;28;20053;-83
2021/05/23 06:29:27;;;;;;;13.85;8.77;;;486.70;1536.00;;;;;;5015503;28;20042;-82
2021/05/23 06:31:53;;;;;;;13.48;8.63;;;486.70;1561.60;;;;;;5013658;28;20492;-83
2021/05/23 06:34:19;;;;;;;11.60;8.23;;;486.70;1561.60;;;;;;5013933;28;20022;-84
2021/05/23 06:36:48;;;;;;;10.43;7.65;;;486.80;1561.60;;;;;;5014273;28;20026;-84
2021/05/23 06:39:25;;;;;;;10.70;7.03;;;487.00;1510.40;;;;;;5017753;28;20022;-84
2021/05/23 06:53:50;;;;;;;6.95;4.85;;;487.30;1510.40;;;;;;5689388;22;20042;-84
2021/05/23 06:56:16;;;;;;;6.93;4.90;;;512.20;1484.80;;;;;;4999635;28;20033;-84
2021/05/23 06:58:45;;;;;;;7.10;5.43;;;512.30;1433.60;;;;;;4997219;28;20037;-83
2021/05/23 07:01:14;;;;;;;5.95;4.57;;;512.40;1459.20;;;;;;4997548;28;20501;-84
2021/05/23 07:03:40;;;;;;;9.43;5.05;;;512.50;1408.00;;;;;;4999216;28;20120;-83
2021/05/23 07:06:27;;;;;;;6.95;3.85;;;512.60;1459.20;;;;;;4997978;28;20026;-84
2021/05/23 07:08:53;;;;;;;6.30;5.03;;;512.40;1433.60;;;;;;5013715;28;20037;-86
2021/05/23 07:11:19;;;;;;;12.13;4.28;;;512.70;1459.20;;;;;;4999395;28;20137;-84
2021/05/23 07:13:59;;;;;;;7.03;3.70;;;512.70;1408.00;;;;;;4998099;28;20030;-84
2021/05/23 07:16:25;;;;;;;5.90;3.05;;;512.90;1382.40;;;;;;4998157;28;20029;-83
2021/05/23 07:19:19;;;;;;;3.65;2.95;;;537.60;1408.00;;;;;;4997911;28;20459;-84
2021/05/23 07:21:47;;;;;;;9.95;3.53;;;537.60;1356.80;;;;;;4998020;28;20026;-84
2021/05/23 07:24:22;;;;;;;5.22;2.97;;;537.60;1382.40;;;;;;4998493;28;20030;-85
2021/05/23 07:26:48;;;;;;;4.03;2.45;;;537.60;1331.20;;;;;;4997236;28;20132;-85
2021/05/23 07:29:13;;;;;;;3.58;2.45;;;537.60;1382.40;;;;;;4997544;28;20526;-85
2021/05/23 07:31:39;;;;;;;4.43;2.70;;;537.70;1356.80;;;;;;4997830;28;20113;-85
2021/05/23 07:34:05;;;;;;;6.47;3.38;;;537.70;1305.60;;;;;;4998195;28;20398;-87
2021/05/23 07:36:32;;;;;;;4.95;2.78;;;537.90;1408.00;;;;;;5000195;28;20022;-85
2021/05/23 07:38:58;;;;;;;4.03;2.67;;;538.10;1382.40;;;;;;5001193;28;20026;-83
2021/05/23 07:41:24;;;;;;;3.65;2.38;;;538.40;1331.20;;;;;;5000769;28;20113;-84
2021/05/23 07:43:50;;;;;;;4.13;2.60;;;563.20;1305.60;;;;;;5016658;28;20026;-84
2021/05/23 07:46:16;;;;;;;9.10;3.35;;;563.30;1228.80;;;;;;5000209;28;20022;-82
2021/05/23 07:48:41;;;;;;;4.38;2.60;;;563.20;1305.60;;;;;;5000247;28;20038;-83
2021/05/23 07:51:07;;;;;;;5.22;3.00;;;563.20;1280.00;;;;;;4999409;28;20021;-85
2021/05/23 07:53:33;;;;;;;6.50;2.70;;;538.50;1254.40;;;;;;4999684;28;20049;-83
2021/05/23 07:55:59;;;;;;;6.78;3.05;;;538.40;1254.40;;;;;;5000668;28;20109;-86
2021/05/23 07:58:25;;;;;;;5.85;3.25;;;538.20;1254.40;;;;;;5001168;28;20500;-86
2021/05/23 08:01:08;;;;;;;7.57;2.83;;;538.30;1280.00;;;;;;5000738;28;20048;-86
2021/05/23 08:03:33;;;;;;;;;;;538.50;1331.20;;;;;;5002925;28;20106;-85
2021/05/23 08:05:59;;;;;;;4.57;3.13;;;538.50;1280.00;;;;;;5000203;28;19948;-83
2021/05/23 08:08:35;;;;;;;5.55;3.22;;;563.20;1305.60;;;;;;4999318;28;21425;-85
2021/05/23 08:11:12;;;;;;;7.55;2.85;;;563.20;1331.20;;;;;;5001651;28;20006;-87
2021/05/23 08:13:38;;;;;;;6.82;3.20;;;563.30;1305.60;;;;;;5000122;28;20022;-82
2021/05/23 08:16:05;;;;;;;4.43;2.97;;;563.30;1331.20;;;;;;5002368;28;20038;-86
2021/05/23 08:18:31;;;;;;;3.88;2.80;;;563.40;1331.20;;;;;;4999510;28;20033;-85
2021/05/23 08:21:02;;;;;;;4.75;2.97;;;563.40;1254.40;;;;;;5018114;28;20018;-85
2021/05/23 08:23:29;;;;;;;4.85;3.05;;;563.50;1228.80;;;;;;5000147;28;20030;-80
2021/05/23 08:25:56;;;;;;;6.82;3.00;;;563.50;1228.80;;;;;;5001645;28;20042;-80
2021/05/23 08:28:23;;;;;;;4.68;3.20;;;563.60;1254.40;;;;;;5001726;28;20033;-81
2021/05/23 08:30:49;;;;;;;4.88;2.78;;;563.60;1228.80;;;;;;4999084;28;20029;-81
2021/05/23 08:33:15;;;;;;;4.57;3.30;;;563.70;1254.40;;;;;;5000136;28;20116;-81
2021/05/23 08:35:42;;;;;;;4.80;3.33;;;563.70;1254.40;;;;;;4997995;28;20124;-83
2021/05/23 08:38:08;;;;;;;7.65;3.35;;;563.90;1280.00;;;;;;5001923;28;20404;-81
2021/05/23 08:40:35;;;;;;;9.30;3.38;;;563.90;1254.40;;;;;;4998913;28;20026;-79
2021/05/23 08:43:10;;;;;;;11.23;3.78;;;563.90;1280.00;;;;;;4998523;28;20490;-81
2021/05/23 08:45:37;;;;;;;4.70;3.45;;;564.00;1331.20;;;;;;5002142;28;20045;-82
2021/05/23 08:48:04;;;;;;;8.60;4.22;;;564.10;1305.60;;;;;;5018171;28;20052;-80
2021/05/23 08:50:31;;;;;;;8.45;4.07;;;564.10;1331.20;;;;;;5018913;28;20026;-81
2021/05/23 08:52:59;;;;;;;9.15;4.68;;;588.90;1331.20;;;;;;5020854;28;20026;-82
2021/05/23 08:55:27;;;;;;;4.75;3.67;;;589.00;1331.20;;;;;;5022140;28;20042;-87
2021/05/23 08:57:55;;;;;;;5.57;3.53;;;589.10;1280.00;;;;;;5000776;28;20036;-83
2021/05/23 09:00:22;;;;;;;20.35;10.52;;;589.10;1305.60;;;;;;5000515;28;20025;-82
2021/05/23 09:02:59;;;;;;;17.67;6.30;;;589.30;1305.60;;;;;;4999838;28;20026;-82
2021/05/23 09:05:36;;;;;;;8.15;3.20;;;589.40;1254.40;;;;;;4998936;28;20022;-83
2021/05/23 09:08:24;;;;;;;4.30;2.67;;;589.50;1254.40;;;;;;4998155;28;20034;-83
2021/05/23 09:10:53;;;;;;;5.40;3.55;;;589.60;1254.40;;;;;;5000009;28;20146;-85
2021/05/23 09:13:34;;;;;;;5.82;3.13;;;589.70;1228.80;;;;;;5000551;28;20041;-85
2021/05/23 09:16:09;;;;;;;6.70;3.55;;;614.40;1203.20;;;;;;4998603;28;20034;-85
2021/05/23 09:18:51;;;;;;;5.32;2.40;;;614.40;1203.20;;;;;;4999988;28;20191;-82
2021/05/23 09:21:35;;;;;;;8.50;3.80;;;614.40;1152.00;;;;;;5000809;28;20030;-83
2021/05/23 09:24:07;;;;;;;7.68;3.33;;;614.60;1152.00;;;;;;4998824;28;20484;-81
2021/05/23 09:26:43;;;;;;;7.65;3.72;;;614.70;1203.20;;;;;;4998925;28;20033;-84
2021/05/23 09:29:15;;;;;;;8.02;3.47;;;614.80;1254.40;;;;;;5000580;28;20034;-83
2021/05/23 09:31:45;;;;;;;10.65;4.22;;;615.00;1228.80;;;;;;4998348;28;20033;-82
2021/05/23 09:34:22;;;;;;;4.30;3.15;;;615.00;1228.80;;;;;;4999259;28;20037;-82
2021/05/23 09:36:49;;;;;;;10.07;5.10;;;615.10;1228.80;;;;;;4999928;28;20385;-83
2021/05/23 09:39:15;;;;;;;6.85;2.50;;;615.20;1177.60;;;;;;4998078;28;20022;-82
2021/05/23 09:41:46;;;;;;;4.38;3.05;;;615.30;1177.60;;;;;;4998996;28;20588;-82
2021/05/23 09:44:19;;;;;;;9.90;4.25;;;640.00;1152.00;;;;;;4998984;28;20022;-84
2021/05/23 09:47:00;;;;;;;11.90;5.00;;;640.20;1177.60;;;;;;5016399;28;20061;-82
2021/05/23 09:49:27;;;;;;;6.00;2.35;;;640.20;1152.00;;;;;;5000685;28;20053;-82
2021/05/23 09:52:02;;;;;;;7.18;4.15;;;640.40;1100.80;;;;;;5014899;28;20026;-83
2021/05/23 09:54:30;;;;;;;5.97;2.22;;;640.50;1126.40;;;;;;4980855;28;20046;-81
2021/05/23 09:56:57;;;;;;;5.32;2.30;;;640.60;1075.20;;;;;;4975092;28;20122;-81
2021/05/23 09:59:27;;;;;;;4.78;2.13;;;640.70;1024.00;;;;;;4975933;28;20023;-81
2021/05/23 10:02:14;;;;;;;3.70;2.20;;;640.90;1100.80;;;;;;4975028;28;20406;-81
2021/05/23 10:04:49;;;;;;;3.17;2.00;;;665.70;1024.00;;;;;;4980407;28;20039;-82
2021/05/23 10:07:25;;;;;;;6.22;2.17;;;665.90;1024.00;;;;;;4993558;28;20039;-81
2021/05/23 10:10:00;;;;;;;4.57;2.78;;;666.20;1024.00;;;;;;4991799;28;20039;-81
2021/05/23 10:12:26;;;;;;;4.57;1.60;;;666.50;1024.00;;;;;;4994297;28;20011;-81
2021/05/23 10:14:52;;;;;;;3.50;2.17;;;691.60;1024.00;;;;;;4992891;28;20027;-80
2021/05/23 10:17:18;;;;;;;7.85;1.90;;;716.80;972.80;;;;;;4982277;28;20123;-80
2021/05/23 10:19:46;;;;;;;5.18;2.30;;;717.60;896.00;;;;;;4981230;28;20027;-81
2021/05/23 10:22:12;;;;;;;3.95;2.53;;;768.30;870.40;;;;;;4980588;28;20073;-83
2021/05/23 10:24:51;;;;;;;2.92;1.73;;;845.10;793.60;;;;;;4978236;28;20110;-83
2021/05/23 10:27:22;;;;;;;3.75;2.20;;;921.90;691.20;;;;;;4974670;28;20075;-81
2021/05/23 10:29:57;;;;;;;3.20;2.22;;;998.40;640.00;;;;;;4974649;28;20042;-82
2021/05/23 10:32:29;;;;;;;3.00;2.20;;;1024.90;537.60;;;;;;4974794;28;20122;-79
2021/05/23 10:34:56;;;;;;;2.70;1.85;;;1049.70;537.60;;;;;;4974957;28;20027;-80
2021/05/23 10:37:30;;;;;;;2.95;1.67;;;1050.50;512.00;;;;;;4974872;28;20218;-82
2021/05/23 10:39:57;;;;;;;4.13;2.50;;;1101.30;537.60;;;;;;4975048;28;20042;-80
2021/05/23 10:42:30;;;;;;;8.52;5.25;;;1126.60;537.60;;;;;;4974258;28;20500;-82
2021/05/23 10:44:58;;;;;;;4.32;2.53;;;1152.40;512.00;;;;;;4979976;28;20039;-81
2021/05/23 10:47:30;;;;;;;5.68;2.40;;;1177.80;460.80;;;;;;4977544;28;20463;-82
2021/05/23 10:49:58;;;;;;;5.78;2.05;;;1178.20;409.60;;;;;;4975007;28;20534;-81
2021/05/23 10:52:29;;;;;;;4.97;1.77;;;1203.60;435.20;;;;;;4978151;28;20023;-80
2021/05/23 10:55:02;;;;;;;7.75;3.40;;;1204.10;435.20;;;;;;4975872;28;20126;-80
2021/05/23 10:57:40;;;;;;;3.08;2.20;;;1229.00;460.80;;;;;;4976926;28;20027;-81
2021/05/23 11:00:08;;;;;;;3.35;2.13;;;1254.60;486.40;;;;;;4976792;28;20049;-81
2021/05/23 11:02:43;;;;;;;4.88;3.17;;;1254.50;486.40;;;;;;4974866;28;20026;-82
2021/05/23 11:05:12;;;;;;;4.07;2.00;;;1254.60;486.40;;;;;;4974165;28;20483;-81
2021/05/23 11:07:39;;;;;;;2.20;1.60;;;1229.70;460.80;;;;;;4976183;28;20035;-80
2021/05/23 11:10:19;;;;;;;2.40;1.80;;;1229.70;460.80;;;;;;4976864;28;20066;-82
2021/05/23 11:12:56;;;;;;;4.68;2.03;;;1254.60;486.40;;;;;;4977686;28;20035;-82
2021/05/23 11:15:23;;;;;;;4.53;3.83;;;1255.30;486.40;;;;;;4977630;28;20058;-82
2021/05/23 11:17:53;;;;;;;3.45;2.45;;;1280.20;486.40;;;;;;4977586;28;20023;-81
2021/05/23 11:20:23;;;;;;;2.75;1.67;;;1280.90;486.40;;;;;;4977012;28;20031;-81
2021/05/23 11:23:01;;;;;;;6.68;3.03;;;1280.00;486.40;;;;;;4977105;28;20019;-82
2021/05/23 11:25:28;;;;;;;2.88;2.00;;;1280.90;486.40;;;;;;4977101;28;20042;-81
2021/05/23 11:28:08;;;;;;;4.97;1.75;;;1306.00;486.40;;;;;;4977608;28;20395;-81
2021/05/23 11:30:38;;;;;;;2.95;2.00;;;1306.10;486.40;;;;;;4976824;28;20410;-80
2021/05/23 11:33:10;;;;;;;4.13;2.35;;;1306.10;486.40;;;;;;4977346;28;20034;-79
2021/05/23 11:35:38;;;;;;;5.45;2.38;;;1305.80;486.40;;;;;;4977735;28;20121;-79
2021/05/23 11:38:04;;;;;;;3.35;2.00;;;1306.50;486.40;;;;;;4977416;28;20035;-81
2021/05/23 11:40:36;;;;;;;5.22;2.35;;;1306.00;486.40;;;;;;4978898;28;20474;-83
2021/05/23 11:43:10;;;;;;;2.63;1.95;;;1305.80;486.40;;;;;;4977622;28;20029;-81
2021/05/23 11:45:36;;;;;;;3.08;2.00;;;1306.50;486.40;;;;;;4977251;28;20034;-81
2021/05/23 11:48:06;;;;;;;4.57;1.80;;;1332.10;512.00;;;;;;4978211;28;20425;-83
2021/05/23 11:50:33;;;;;;;3.40;1.77;;;1331.90;512.00;;;;;;4977802;28;20035;-81
2021/05/23 11:52:59;;;;;;;3.25;1.65;;;1306.50;486.40;;;;;;4980533;28;20054;-82
2021/05/23 11:55:28;;;;;;;2.17;1.58;;;1305.80;486.40;;;;;;5002458;28;20577;-82
2021/05/23 11:58:08;;;;;;;4.43;2.25;;;1280.90;486.40;;;;;;4984748;28;20030;-82
2021/05/23 12:00:34;;;;;;;4.93;2.38;;;1331.60;512.00;;;;;;5001720;28;20042;-82
2021/05/23 12:03:00;;;;;;;7.57;2.55;;;1357.00;537.60;;;;;;5017037;28;20405;-81
2021/05/23 12:05:55;;;;;;;4.63;2.35;;;1357.00;537.60;;;;;;5000570;28;20076;-82
2021/05/23 12:08:22;;;;;;;4.13;1.80;;;1357.30;537.60;;;;;;4921711;29;20039;-82
2021/05/23 12:10:58;;;;;;;3.58;1.77;;;1357.00;537.60;;;;;;4938651;29;20444;-82
2021/05/23 12:13:41;;;;;;;4.57;1.90;;;1306.40;486.40;;;;;;4938631;29;20032;-84
2021/05/23 12:16:08;;;;;;;2.72;2.15;;;1305.60;486.40;;;;;;4937929;29;20488;-82
2021/05/23 12:18:44;;;;;;;3.17;1.65;;;1331.60;512.00;;;;;;4922333;29;20148;-82
2021/05/23 12:21:15;;;;;;;3.17;2.22;;;1331.60;512.00;;;;;;4921711;29;20110;-82
2021/05/23 12:23:41;;;;;;;;;;;1305.60;486.40;;;;;;4937548;29;20035;-82
2021/05/23 12:26:12;;;;;;;2.92;1.70;;;1305.80;486.40;;;;;;4920917;29;19954;-82
2021/05/23 12:28:45;;;;;;;4.28;2.17;;;1306.40;486.40;;;;;;4921154;29;20036;-81
2021/05/23 12:31:19;;;;;;;2.53;1.85;;;1331.60;512.00;;;;;;4922477;29;20055;-81
2021/05/23 12:33:53;;;;;;;3.72;2.25;;;1357.20;537.60;;;;;;4921163;29;20071;-81
2021/05/23 12:36:22;;;;;;;3.00;2.40;;;1357.00;537.60;;;;;;4922050;29;20036;-81
2021/05/23 12:38:56;;;;;;;3.40;1.70;;;1331.30;512.00;;;;;;4920764;29;20106;-81
2021/05/23 12:41:32;;;;;;;3.72;2.58;;;1306.40;486.40;;;;;;4921804;29;20039;-81
2021/05/23 12:43:58;;;;;;;4.07;2.40;;;1306.20;486.40;;;;;;4951527;28;20037;-81